sensor_id;sensor_type;location;lat;lon;timestamp;P1;durP1;ratioP1;P2;durP2;ratioP2
31126;SDS011;17775;57.948;12.514;2022-07-03T00:01:51;6.43;;;2.38;;
31126;SDS011;17775;57.948;12.514;2022-07-03T00:04:18;6.45;;;1.90;;
31126;SDS011;17775;57.948;12.514;2022-07-03T00:06:49;7.15;;;1.55;;
31126;SDS011;17775;57.948;12.514;2022-07-03T00:09:15;5.55;;;1.48;;
31126;SDS011;17775;57.948;12.514;2022-07-03T00:11:43;7.70;;;1.45;;
31126;SDS011;17775;57.948;12.514;2022-07-03T00:14:10;5.65;;;1.88;;
31126;SDS011;17775;57.948;12.514;2022-07-03T00:16:36;4.10;;;1.48;;
31126;SDS011;17775;57.948;12.514;2022-07-03T00:19:03;6.00;;;1.92;;
31126;SDS011;17775;57.948;12.514;2022-07-03T00:21:43;5.68;;;1.33;;
31126;SDS011;17775;57.948;12.514;2022-07-03T00:24:13;4.47;;;1.65;;
31126;SDS011;17775;57.948;12.514;2022-07-03T00:26:42;4.95;;;1.73;;
31126;SDS011;17775;57.948;12.514;2022-07-03T00:29:11;5.00;;;1.40;;
31126;SDS011;17775;57.948;12.514;2022-07-03T00:31:38;5.25;;;2.03;;
31126;SDS011;17775;57.948;12.514;2022-07-03T00:34:06;4.53;;;1.33;;
31126;SDS011;17775;57.948;12.514;2022-07-03T00:36:34;6.30;;;1.52;;
31126;SDS011;17775;57.948;12.514;2022-07-03T00:39:01;5.95;;;1.45;;
31126;SDS011;17775;57.948;12.514;2022-07-03T00:41:29;6.95;;;1.35;;
31126;SDS011;17775;57.948;12.514;2022-07-03T00:43:56;5.38;;;1.40;;
31126;SDS011;17775;57.948;12.514;2022-07-03T00:46:25;6.35;;;1.27;;
31126;SDS011;17775;57.948;12.514;2022-07-03T00:48:53;3.70;;;1.48;;
31126;SDS011;17775;57.948;12.514;2022-07-03T00:51:21;4.28;;;1.60;;
31126;SDS011;17775;57.948;12.514;2022-07-03T00:53:49;5.22;;;1.30;;
31126;SDS011;17775;57.948;12.514;2022-07-03T00:56:15;5.57;;;1.17;;
31126;SDS011;17775;57.948;12.514;2022-07-03T00:58:42;5.20;;;1.58;;
31126;SDS011;17775;57.948;12.514;2022-07-03T01:01:09;2.30;;;1.17;;
31126;SDS011;17775;57.948;12.514;2022-07-03T01:03:39;4.90;;;1.10;;
31126;SDS011;17775;57.948;12.514;2022-07-03T01:06:10;4.15;;;1.48;;
31126;SDS011;17775;57.948;12.514;2022-07-03T01:08:43;3.92;;;1.50;;
31126;SDS011;17775;57.948;12.514;2022-07-03T01:27:00;5.53;;;1.80;;
31126;SDS011;17775;57.948;12.514;2022-07-03T01:29:31;4.65;;;1.85;;
31126;SDS011;17775;57.948;12.514;2022-07-03T01:32:01;4.47;;;1.90;;
31126;SDS011;17775;57.948;12.514;2022-07-03T01:34:33;3.67;;;1.38;;
31126;SDS011;17775;57.948;12.514;2022-07-03T01:37:00;3.45;;;1.25;;
31126;SDS011;17775;57.948;12.514;2022-07-03T01:39:31;6.60;;;1.53;;
31126;SDS011;17775;57.948;12.514;2022-07-03T01:42:20;6.70;;;1.67;;
31126;SDS011;17775;57.948;12.514;2022-07-03T01:44:48;6.18;;;1.75;;
31126;SDS011;17775;57.948;12.514;2022-07-03T01:47:18;7.57;;;1.58;;
31126;SDS011;17775;57.948;12.514;2022-07-03T01:49:50;5.15;;;1.50;;
31126;SDS011;17775;57.948;12.514;2022-07-03T01:52:17;6.78;;;1.70;;
31126;SDS011;17775;57.948;12.514;2022-07-03T01:55:05;8.43;;;1.50;;
31126;SDS011;17775;57.948;12.514;2022-07-03T01:57:45;4.13;;;1.35;;
31126;SDS011;17775;57.948;12.514;2022-07-03T02:00:12;5.07;;;1.45;;
31126;SDS011;17775;57.948;12.514;2022-07-03T02:02:42;3.00;;;1.45;;
31126;SDS011;17775;57.948;12.514;2022-07-03T02:05:29;5.50;;;1.63;;
31126;SDS011;17775;57.948;12.514;2022-07-03T02:10:27;3.00;;;1.40;;
31126;SDS011;17775;57.948;12.514;2022-07-03T02:12:59;5.03;;;2.00;;
31126;SDS011;17775;57.948;12.514;2022-07-03T02:15:33;4.78;;;1.50;;
31126;SDS011;17775;57.948;12.514;2022-07-03T02:18:07;5.90;;;1.40;;
31126;SDS011;17775;57.948;12.514;2022-07-03T02:20:36;10.90;;;1.98;;
31126;SDS011;17775;57.948;12.514;2022-07-03T02:23:05;5.90;;;1.83;;
31126;SDS011;17775;57.948;12.514;2022-07-03T02:25:34;6.85;;;2.17;;
31126;SDS011;17775;57.948;12.514;2022-07-03T02:28:06;4.63;;;1.73;;
31126;SDS011;17775;57.948;12.514;2022-07-03T02:30:42;6.63;;;1.70;;
31126;SDS011;17775;57.948;12.514;2022-07-03T02:33:09;4.88;;;2.10;;
31126;SDS011;17775;57.948;12.514;2022-07-03T02:35:39;5.93;;;1.83;;
31126;SDS011;17775;57.948;12.514;2022-07-03T02:38:08;5.85;;;1.90;;
31126;SDS011;17775;57.948;12.514;2022-07-03T02:43:28;2.92;;;1.95;;
31126;SDS011;17775;57.948;12.514;2022-07-03T02:46:01;5.85;;;1.83;;
31126;SDS011;17775;57.948;12.514;2022-07-03T02:48:49;7.18;;;2.03;;
31126;SDS011;17775;57.948;12.514;2022-07-03T02:51:21;3.72;;;1.77;;
31126;SDS011;17775;57.948;12.514;2022-07-03T02:54:32;6.35;;;2.13;;
31126;SDS011;17775;57.948;12.514;2022-07-03T02:57:00;5.03;;;1.70;;
31126;SDS011;17775;57.948;12.514;2022-07-03T03:02:19;3.08;;;1.88;;
31126;SDS011;17775;57.948;12.514;2022-07-03T03:04:51;3.22;;;2.40;;
31126;SDS011;17775;57.948;12.514;2022-07-03T03:07:26;6.13;;;1.95;;
31126;SDS011;17775;57.948;12.514;2022-07-03T03:09:55;7.05;;;2.10;;
31126;SDS011;17775;57.948;12.514;2022-07-03T03:12:29;5.57;;;2.22;;
31126;SDS011;17775;57.948;12.514;2022-07-03T03:15:00;4.60;;;2.20;;
31126;SDS011;17775;57.948;12.514;2022-07-03T03:17:29;4.35;;;1.75;;
31126;SDS011;17775;57.948;12.514;2022-07-03T03:19:59;3.80;;;2.05;;
31126;SDS011;17775;57.948;12.514;2022-07-03T03:22:35;6.38;;;2.28;;
31126;SDS011;17775;57.948;12.514;2022-07-03T03:25:04;6.45;;;2.20;;
31126;SDS011;17775;57.948;12.514;2022-07-03T03:27:30;6.38;;;2.10;;
31126;SDS011;17775;57.948;12.514;2022-07-03T03:29:57;5.45;;;1.85;;
31126;SDS011;17775;57.948;12.514;2022-07-03T03:32:25;6.75;;;2.65;;
31126;SDS011;17775;57.948;12.514;2022-07-03T03:34:52;3.47;;;1.90;;
31126;SDS011;17775;57.948;12.514;2022-07-03T03:37:18;5.53;;;2.17;;
31126;SDS011;17775;57.948;12.514;2022-07-03T03:39:45;5.80;;;2.42;;
31126;SDS011;17775;57.948;12.514;2022-07-03T03:42:12;3.42;;;2.15;;
31126;SDS011;17775;57.948;12.514;2022-07-03T03:44:38;5.18;;;2.05;;
31126;SDS011;17775;57.948;12.514;2022-07-03T03:47:04;3.58;;;2.13;;
31126;SDS011;17775;57.948;12.514;2022-07-03T03:49:31;5.80;;;2.28;;
31126;SDS011;17775;57.948;12.514;2022-07-03T03:51:57;5.28;;;2.13;;
31126;SDS011;17775;57.948;12.514;2022-07-03T03:54:24;8.88;;;2.25;;
31126;SDS011;17775;57.948;12.514;2022-07-03T03:56:50;4.68;;;2.28;;
31126;SDS011;17775;57.948;12.514;2022-07-03T03:59:17;5.93;;;2.13;;
31126;SDS011;17775;57.948;12.514;2022-07-03T04:01:43;5.45;;;2.00;;
31126;SDS011;17775;57.948;12.514;2022-07-03T04:04:12;8.82;;;2.53;;
31126;SDS011;17775;57.948;12.514;2022-07-03T04:06:44;3.53;;;2.03;;
31126;SDS011;17775;57.948;12.514;2022-07-03T04:09:10;5.50;;;2.55;;
31126;SDS011;17775;57.948;12.514;2022-07-03T04:11:36;7.13;;;2.28;;
31126;SDS011;17775;57.948;12.514;2022-07-03T04:14:03;6.28;;;2.30;;
31126;SDS011;17775;57.948;12.514;2022-07-03T04:16:29;7.50;;;2.50;;
31126;SDS011;17775;57.948;12.514;2022-07-03T04:18:56;5.28;;;2.17;;
31126;SDS011;17775;57.948;12.514;2022-07-03T04:21:23;6.45;;;1.80;;
31126;SDS011;17775;57.948;12.514;2022-07-03T04:23:49;5.90;;;2.20;;
31126;SDS011;17775;57.948;12.514;2022-07-03T04:26:15;3.40;;;1.75;;
31126;SDS011;17775;57.948;12.514;2022-07-03T04:28:45;4.80;;;2.10;;
31126;SDS011;17775;57.948;12.514;2022-07-03T04:31:11;7.75;;;2.00;;
31126;SDS011;17775;57.948;12.514;2022-07-03T04:33:38;6.22;;;1.95;;
31126;SDS011;17775;57.948;12.514;2022-07-03T04:36:12;5.72;;;2.50;;
31126;SDS011;17775;57.948;12.514;2022-07-03T04:38:38;6.20;;;2.03;;
31126;SDS011;17775;57.948;12.514;2022-07-03T04:41:04;3.95;;;2.20;;
31126;SDS011;17775;57.948;12.514;2022-07-03T04:43:31;5.80;;;2.00;;
31126;SDS011;17775;57.948;12.514;2022-07-03T04:45:57;4.65;;;2.10;;
31126;SDS011;17775;57.948;12.514;2022-07-03T04:48:24;7.72;;;2.30;;
31126;SDS011;17775;57.948;12.514;2022-07-03T04:50:50;4.65;;;1.83;;
31126;SDS011;17775;57.948;12.514;2022-07-03T04:53:17;3.53;;;1.67;;
31126;SDS011;17775;57.948;12.514;2022-07-03T04:55:43;6.63;;;1.60;;
31126;SDS011;17775;57.948;12.514;2022-07-03T04:58:09;2.72;;;1.65;;
31126;SDS011;17775;57.948;12.514;2022-07-03T05:00:36;3.50;;;1.40;;
31126;SDS011;17775;57.948;12.514;2022-07-03T05:03:09;3.95;;;1.77;;
31126;SDS011;17775;57.948;12.514;2022-07-03T05:05:35;5.25;;;1.50;;
31126;SDS011;17775;57.948;12.514;2022-07-03T05:08:02;3.17;;;1.40;;
31126;SDS011;17775;57.948;12.514;2022-07-03T05:10:28;6.35;;;1.80;;
31126;SDS011;17775;57.948;12.514;2022-07-03T05:12:55;4.32;;;1.90;;
31126;SDS011;17775;57.948;12.514;2022-07-03T05:15:21;3.03;;;1.40;;
31126;SDS011;17775;57.948;12.514;2022-07-03T05:17:49;3.30;;;1.73;;
31126;SDS011;17775;57.948;12.514;2022-07-03T05:20:15;2.92;;;1.40;;
31126;SDS011;17775;57.948;12.514;2022-07-03T05:22:51;4.55;;;2.00;;
31126;SDS011;17775;57.948;12.514;2022-07-03T05:25:18;4.60;;;1.55;;
31126;SDS011;17775;57.948;12.514;2022-07-03T05:27:45;5.97;;;1.63;;
31126;SDS011;17775;57.948;12.514;2022-07-03T05:30:12;6.53;;;1.80;;
31126;SDS011;17775;57.948;12.514;2022-07-03T05:32:40;2.67;;;1.45;;
31126;SDS011;17775;57.948;12.514;2022-07-03T05:35:07;2.30;;;1.45;;
31126;SDS011;17775;57.948;12.514;2022-07-03T05:37:33;9.48;;;1.60;;
31126;SDS011;17775;57.948;12.514;2022-07-03T05:40:00;3.30;;;1.40;;
31126;SDS011;17775;57.948;12.514;2022-07-03T05:42:26;4.57;;;1.33;;
31126;SDS011;17775;57.948;12.514;2022-07-03T05:44:53;3.00;;;1.67;;
31126;SDS011;17775;57.948;12.514;2022-07-03T05:47:20;2.45;;;1.30;;
31126;SDS011;17775;57.948;12.514;2022-07-03T05:49:46;1.85;;;1.20;;
31126;SDS011;17775;57.948;12.514;2022-07-03T05:52:13;4.38;;;1.33;;
31126;SDS011;17775;57.948;12.514;2022-07-03T05:54:40;4.00;;;1.40;;
31126;SDS011;17775;57.948;12.514;2022-07-03T05:57:06;1.95;;;1.05;;
31126;SDS011;17775;57.948;12.514;2022-07-03T05:59:33;6.30;;;1.70;;
31126;SDS011;17775;57.948;12.514;2022-07-03T06:01:59;3.28;;;1.60;;
31126;SDS011;17775;57.948;12.514;2022-07-03T06:04:26;3.42;;;1.65;;
31126;SDS011;17775;57.948;12.514;2022-07-03T06:06:52;3.40;;;1.70;;
31126;SDS011;17775;57.948;12.514;2022-07-03T06:09:21;4.07;;;1.92;;
31126;SDS011;17775;57.948;12.514;2022-07-03T06:11:47;7.07;;;1.90;;
31126;SDS011;17775;57.948;12.514;2022-07-03T06:14:14;3.03;;;1.98;;
31126;SDS011;17775;57.948;12.514;2022-07-03T06:16:41;6.68;;;1.70;;
31126;SDS011;17775;57.948;12.514;2022-07-03T06:19:07;2.88;;;1.40;;
31126;SDS011;17775;57.948;12.514;2022-07-03T06:21:34;4.10;;;1.77;;
31126;SDS011;17775;57.948;12.514;2022-07-03T06:24:00;5.15;;;1.67;;
31126;SDS011;17775;57.948;12.514;2022-07-03T06:26:27;3.67;;;1.83;;
31126;SDS011;17775;57.948;12.514;2022-07-03T06:28:55;3.95;;;1.95;;
31126;SDS011;17775;57.948;12.514;2022-07-03T06:31:21;5.97;;;1.98;;
31126;SDS011;17775;57.948;12.514;2022-07-03T06:33:48;4.35;;;1.95;;
31126;SDS011;17775;57.948;12.514;2022-07-03T06:36:14;3.35;;;1.92;;
31126;SDS011;17775;57.948;12.514;2022-07-03T06:38:40;4.13;;;2.00;;
31126;SDS011;17775;57.948;12.514;2022-07-03T06:41:07;5.55;;;1.58;;
31126;SDS011;17775;57.948;12.514;2022-07-03T06:43:33;6.20;;;2.20;;
31126;SDS011;17775;57.948;12.514;2022-07-03T06:46:00;5.43;;;2.00;;
31126;SDS011;17775;57.948;12.514;2022-07-03T06:48:26;5.22;;;1.67;;
31126;SDS011;17775;57.948;12.514;2022-07-03T06:50:53;4.80;;;1.92;;
31126;SDS011;17775;57.948;12.514;2022-07-03T06:53:19;3.28;;;2.05;;
31126;SDS011;17775;57.948;12.514;2022-07-03T06:55:46;3.53;;;2.25;;
31126;SDS011;17775;57.948;12.514;2022-07-03T06:58:13;4.43;;;2.00;;
31126;SDS011;17775;57.948;12.514;2022-07-03T07:00:40;5.50;;;2.00;;
31126;SDS011;17775;57.948;12.514;2022-07-03T07:03:06;3.45;;;1.83;;
31126;SDS011;17775;57.948;12.514;2022-07-03T07:05:32;4.65;;;1.75;;
31126;SDS011;17775;57.948;12.514;2022-07-03T07:07:59;7.60;;;2.40;;
31126;SDS011;17775;57.948;12.514;2022-07-03T07:10:25;4.70;;;1.90;;
31126;SDS011;17775;57.948;12.514;2022-07-03T07:12:52;3.42;;;1.83;;
31126;SDS011;17775;57.948;12.514;2022-07-03T07:15:18;6.82;;;2.10;;
31126;SDS011;17775;57.948;12.514;2022-07-03T07:17:45;5.25;;;2.13;;
31126;SDS011;17775;57.948;12.514;2022-07-03T07:20:11;5.30;;;2.08;;
31126;SDS011;17775;57.948;12.514;2022-07-03T07:22:38;2.72;;;2.25;;
31126;SDS011;17775;57.948;12.514;2022-07-03T07:25:04;6.75;;;2.33;;
31126;SDS011;17775;57.948;12.514;2022-07-03T07:27:31;6.03;;;2.03;;
31126;SDS011;17775;57.948;12.514;2022-07-03T07:29:59;8.77;;;2.30;;
31126;SDS011;17775;57.948;12.514;2022-07-03T07:32:26;3.80;;;2.03;;
31126;SDS011;17775;57.948;12.514;2022-07-03T07:34:52;4.97;;;2.15;;
31126;SDS011;17775;57.948;12.514;2022-07-03T07:37:18;3.90;;;1.88;;
31126;SDS011;17775;57.948;12.514;2022-07-03T07:39:45;4.10;;;2.30;;
31126;SDS011;17775;57.948;12.514;2022-07-03T07:42:12;3.95;;;1.77;;
31126;SDS011;17775;57.948;12.514;2022-07-03T07:44:39;6.50;;;2.17;;
31126;SDS011;17775;57.948;12.514;2022-07-03T07:47:05;7.72;;;2.42;;
31126;SDS011;17775;57.948;12.514;2022-07-03T07:49:32;3.05;;;2.00;;
31126;SDS011;17775;57.948;12.514;2022-07-03T07:51:58;4.88;;;2.38;;
31126;SDS011;17775;57.948;12.514;2022-07-03T07:54:25;7.20;;;2.75;;
31126;SDS011;17775;57.948;12.514;2022-07-03T07:56:51;2.55;;;2.00;;
31126;SDS011;17775;57.948;12.514;2022-07-03T07:59:18;4.15;;;2.08;;
31126;SDS011;17775;57.948;12.514;2022-07-03T08:01:44;5.03;;;2.53;;
31126;SDS011;17775;57.948;12.514;2022-07-03T08:04:29;6.70;;;2.15;;
31126;SDS011;17775;57.948;12.514;2022-07-03T08:07:14;3.92;;;2.17;;
31126;SDS011;17775;57.948;12.514;2022-07-03T08:09:41;4.95;;;2.40;;
31126;SDS011;17775;57.948;12.514;2022-07-03T08:12:07;4.90;;;2.22;;
31126;SDS011;17775;57.948;12.514;2022-07-03T08:14:34;4.00;;;2.63;;
31126;SDS011;17775;57.948;12.514;2022-07-03T08:17:00;5.25;;;2.22;;
31126;SDS011;17775;57.948;12.514;2022-07-03T08:19:27;4.20;;;2.42;;
31126;SDS011;17775;57.948;12.514;2022-07-03T08:21:53;7.90;;;2.60;;
31126;SDS011;17775;57.948;12.514;2022-07-03T08:24:21;6.68;;;2.20;;
31126;SDS011;17775;57.948;12.514;2022-07-03T08:26:48;3.33;;;2.35;;
31126;SDS011;17775;57.948;12.514;2022-07-03T08:29:14;4.38;;;2.55;;
31126;SDS011;17775;57.948;12.514;2022-07-03T08:31:41;5.20;;;2.42;;
31126;SDS011;17775;57.948;12.514;2022-07-03T08:34:07;7.53;;;3.13;;
31126;SDS011;17775;57.948;12.514;2022-07-03T08:36:34;5.93;;;2.30;;
31126;SDS011;17775;57.948;12.514;2022-07-03T08:39:01;2.85;;;2.30;;
31126;SDS011;17775;57.948;12.514;2022-07-03T08:41:27;5.97;;;2.88;;
31126;SDS011;17775;57.948;12.514;2022-07-03T08:43:54;5.07;;;2.45;;
31126;SDS011;17775;57.948;12.514;2022-07-03T08:46:21;3.05;;;2.47;;
31126;SDS011;17775;57.948;12.514;2022-07-03T08:48:47;2.50;;;2.10;;
31126;SDS011;17775;57.948;12.514;2022-07-03T08:51:15;3.78;;;2.38;;
31126;SDS011;17775;57.948;12.514;2022-07-03T08:53:43;4.68;;;2.63;;
31126;SDS011;17775;57.948;12.514;2022-07-03T08:56:09;4.95;;;2.97;;
31126;SDS011;17775;57.948;12.514;2022-07-03T08:58:36;4.25;;;2.60;;
31126;SDS011;17775;57.948;12.514;2022-07-03T09:01:03;3.90;;;2.70;;
31126;SDS011;17775;57.948;12.514;2022-07-03T09:03:30;2.95;;;2.65;;
31126;SDS011;17775;57.948;12.514;2022-07-03T09:05:57;5.97;;;3.40;;
31126;SDS011;17775;57.948;12.514;2022-07-03T09:08:25;3.83;;;3.30;;
31126;SDS011;17775;57.948;12.514;2022-07-03T09:10:52;5.38;;;3.95;;
31126;SDS011;17775;57.948;12.514;2022-07-03T09:13:19;5.55;;;4.20;;
31126;SDS011;17775;57.948;12.514;2022-07-03T09:15:45;4.50;;;3.78;;
31126;SDS011;17775;57.948;12.514;2022-07-03T09:18:11;7.60;;;4.20;;
31126;SDS011;17775;57.948;12.514;2022-07-03T09:20:39;7.40;;;4.50;;
31126;SDS011;17775;57.948;12.514;2022-07-03T09:23:10;5.15;;;3.85;;
31126;SDS011;17775;57.948;12.514;2022-07-03T09:25:50;6.47;;;4.43;;
31126;SDS011;17775;57.948;12.514;2022-07-03T09:28:17;7.20;;;4.20;;
31126;SDS011;17775;57.948;12.514;2022-07-03T09:30:58;8.02;;;4.30;;
31126;SDS011;17775;57.948;12.514;2022-07-03T09:33:26;8.93;;;4.95;;
31126;SDS011;17775;57.948;12.514;2022-07-03T09:35:53;6.72;;;4.50;;
31126;SDS011;17775;57.948;12.514;2022-07-03T09:38:20;9.05;;;5.32;;
31126;SDS011;17775;57.948;12.514;2022-07-03T09:43:13;5.93;;;5.00;;
31126;SDS011;17775;57.948;12.514;2022-07-03T09:45:50;6.38;;;4.90;;
31126;SDS011;17775;57.948;12.514;2022-07-03T09:51:11;10.27;;;4.82;;
31126;SDS011;17775;57.948;12.514;2022-07-03T09:53:47;8.10;;;5.05;;
31126;SDS011;17775;57.948;12.514;2022-07-03T09:56:42;6.70;;;6.00;;
31126;SDS011;17775;57.948;12.514;2022-07-03T10:01:35;5.95;;;4.90;;
31126;SDS011;17775;57.948;12.514;2022-07-03T10:04:18;10.85;;;5.78;;
31126;SDS011;17775;57.948;12.514;2022-07-03T10:06:54;7.80;;;4.80;;
31126;SDS011;17775;57.948;12.514;2022-07-03T10:09:25;5.00;;;4.25;;
31126;SDS011;17775;57.948;12.514;2022-07-03T10:11:52;5.50;;;3.78;;
31126;SDS011;17775;57.948;12.514;2022-07-03T10:14:28;8.30;;;4.93;;
31126;SDS011;17775;57.948;12.514;2022-07-03T10:16:55;7.15;;;4.57;;
31126;SDS011;17775;57.948;12.514;2022-07-03T10:19:28;8.60;;;4.43;;
31126;SDS011;17775;57.948;12.514;2022-07-03T10:24:21;6.22;;;3.78;;
31126;SDS011;17775;57.948;12.514;2022-07-03T10:26:49;6.25;;;3.90;;
31126;SDS011;17775;57.948;12.514;2022-07-03T10:29:16;6.15;;;3.80;;
31126;SDS011;17775;57.948;12.514;2022-07-03T10:31:45;7.35;;;3.85;;
31126;SDS011;17775;57.948;12.514;2022-07-03T10:34:21;6.22;;;3.70;;
31126;SDS011;17775;57.948;12.514;2022-07-03T10:36:49;4.30;;;3.78;;
31126;SDS011;17775;57.948;12.514;2022-07-03T10:39:25;5.10;;;3.95;;
31126;SDS011;17775;57.948;12.514;2022-07-03T10:41:54;5.82;;;3.75;;
31126;SDS011;17775;57.948;12.514;2022-07-03T10:47:40;5.78;;;3.35;;
31126;SDS011;17775;57.948;12.514;2022-07-03T10:50:07;4.60;;;3.40;;
31126;SDS011;17775;57.948;12.514;2022-07-03T10:52:35;4.70;;;3.40;;
31126;SDS011;17775;57.948;12.514;2022-07-03T10:55:01;6.78;;;3.83;;
31126;SDS011;17775;57.948;12.514;2022-07-03T10:57:32;7.20;;;4.60;;
31126;SDS011;17775;57.948;12.514;2022-07-03T10:59:59;8.60;;;5.03;;
31126;SDS011;17775;57.948;12.514;2022-07-03T11:15:27;5.47;;;3.83;;
31126;SDS011;17775;57.948;12.514;2022-07-03T11:25:39;7.05;;;4.20;;
31126;SDS011;17775;57.948;12.514;2022-07-03T11:28:06;5.07;;;3.53;;
31126;SDS011;17775;57.948;12.514;2022-07-03T11:31:15;7.72;;;4.78;;
31126;SDS011;17775;57.948;12.514;2022-07-03T11:38:41;6.43;;;4.43;;
31126;SDS011;17775;57.948;12.514;2022-07-03T11:41:08;6.53;;;4.95;;
31126;SDS011;17775;57.948;12.514;2022-07-03T11:43:35;6.88;;;4.60;;
31126;SDS011;17775;57.948;12.514;2022-07-03T11:46:02;5.32;;;4.45;;
31126;SDS011;17775;57.948;12.514;2022-07-03T11:48:30;7.40;;;4.28;;
31126;SDS011;17775;57.948;12.514;2022-07-03T11:51:00;6.20;;;4.35;;
31126;SDS011;17775;57.948;12.514;2022-07-03T11:53:31;4.63;;;4.13;;
31126;SDS011;17775;57.948;12.514;2022-07-03T11:55:59;5.35;;;4.45;;
31126;SDS011;17775;57.948;12.514;2022-07-03T11:58:39;8.25;;;5.47;;
31126;SDS011;17775;57.948;12.514;2022-07-03T12:01:08;5.93;;;4.30;;
31126;SDS011;17775;57.948;12.514;2022-07-03T12:03:34;6.28;;;4.22;;
31126;SDS011;17775;57.948;12.514;2022-07-03T12:06:01;6.30;;;4.72;;
31126;SDS011;17775;57.948;12.514;2022-07-03T12:08:31;8.13;;;4.53;;
31126;SDS011;17775;57.948;12.514;2022-07-03T12:10:59;6.15;;;4.63;;
31126;SDS011;17775;57.948;12.514;2022-07-03T12:13:26;10.60;;;4.82;;
31126;SDS011;17775;57.948;12.514;2022-07-03T12:15:53;6.63;;;5.35;;
31126;SDS011;17775;57.948;12.514;2022-07-03T12:18:19;9.88;;;5.32;;
31126;SDS011;17775;57.948;12.514;2022-07-03T12:20:46;7.15;;;4.90;;
31126;SDS011;17775;57.948;12.514;2022-07-03T12:23:12;7.70;;;4.95;;
31126;SDS011;17775;57.948;12.514;2022-07-03T12:25:39;7.32;;;5.10;;
31126;SDS011;17775;57.948;12.514;2022-07-03T12:28:10;8.07;;;5.88;;
31126;SDS011;17775;57.948;12.514;2022-07-03T12:30:36;11.68;;;5.90;;
31126;SDS011;17775;57.948;12.514;2022-07-03T12:33:03;9.68;;;6.10;;
31126;SDS011;17775;57.948;12.514;2022-07-03T12:35:30;8.75;;;5.90;;
31126;SDS011;17775;57.948;12.514;2022-07-03T12:37:57;8.90;;;5.85;;
31126;SDS011;17775;57.948;12.514;2022-07-03T12:40:23;8.52;;;6.35;;
31126;SDS011;17775;57.948;12.514;2022-07-03T12:42:51;8.63;;;5.95;;
31126;SDS011;17775;57.948;12.514;2022-07-03T12:45:21;7.32;;;5.22;;
31126;SDS011;17775;57.948;12.514;2022-07-03T12:48:02;6.93;;;4.90;;
31126;SDS011;17775;57.948;12.514;2022-07-03T12:53:10;8.77;;;4.63;;
31126;SDS011;17775;57.948;12.514;2022-07-03T12:55:37;6.72;;;3.75;;
31126;SDS011;17775;57.948;12.514;2022-07-03T12:58:14;5.47;;;3.10;;
31126;SDS011;17775;57.948;12.514;2022-07-03T13:00:59;5.65;;;3.38;;
31126;SDS011;17775;57.948;12.514;2022-07-03T13:03:30;6.90;;;3.35;;
31126;SDS011;17775;57.948;12.514;2022-07-03T13:06:13;5.43;;;3.58;;
31126;SDS011;17775;57.948;12.514;2022-07-03T13:08:48;6.43;;;3.15;;
31126;SDS011;17775;57.948;12.514;2022-07-03T13:11:15;5.57;;;3.50;;
31126;SDS011;17775;57.948;12.514;2022-07-03T13:13:51;6.72;;;3.22;;
31126;SDS011;17775;57.948;12.514;2022-07-03T13:16:26;4.63;;;3.50;;
31126;SDS011;17775;57.948;12.514;2022-07-03T13:18:58;5.82;;;3.20;;
31126;SDS011;17775;57.948;12.514;2022-07-03T13:21:26;3.78;;;2.90;;
31126;SDS011;17775;57.948;12.514;2022-07-03T13:23:55;4.03;;;3.50;;
31126;SDS011;17775;57.948;12.514;2022-07-03T13:26:23;4.30;;;3.72;;
31126;SDS011;17775;57.948;12.514;2022-07-03T13:28:49;4.28;;;3.88;;
31126;SDS011;17775;57.948;12.514;2022-07-03T13:31:17;4.07;;;3.30;;
31126;SDS011;17775;57.948;12.514;2022-07-03T13:33:43;6.95;;;3.45;;
31126;SDS011;17775;57.948;12.514;2022-07-03T13:36:09;4.97;;;3.72;;
31126;SDS011;17775;57.948;12.514;2022-07-03T13:38:36;5.63;;;4.15;;
31126;SDS011;17775;57.948;12.514;2022-07-03T13:41:02;6.65;;;3.70;;
31126;SDS011;17775;57.948;12.514;2022-07-03T13:43:29;4.05;;;3.65;;
31126;SDS011;17775;57.948;12.514;2022-07-03T13:45:55;3.72;;;2.95;;
31126;SDS011;17775;57.948;12.514;2022-07-03T13:48:22;5.60;;;3.10;;
31126;SDS011;17775;57.948;12.514;2022-07-03T13:50:48;5.15;;;3.13;;
31126;SDS011;17775;57.948;12.514;2022-07-03T13:53:15;5.50;;;3.88;;
31126;SDS011;17775;57.948;12.514;2022-07-03T13:55:41;5.30;;;3.33;;
31126;SDS011;17775;57.948;12.514;2022-07-03T13:58:08;4.57;;;3.17;;
31126;SDS011;17775;57.948;12.514;2022-07-03T14:00:34;4.68;;;3.63;;
31126;SDS011;17775;57.948;12.514;2022-07-03T14:03:01;6.72;;;3.42;;
31126;SDS011;17775;57.948;12.514;2022-07-03T14:05:28;2.95;;;2.35;;
31126;SDS011;17775;57.948;12.514;2022-07-03T14:07:55;4.28;;;2.00;;
31126;SDS011;17775;57.948;12.514;2022-07-03T14:10:21;2.40;;;1.63;;
31126;SDS011;17775;57.948;12.514;2022-07-03T14:12:48;3.58;;;1.90;;
31126;SDS011;17775;57.948;12.514;2022-07-03T14:15:14;2.47;;;1.67;;
31126;SDS011;17775;57.948;12.514;2022-07-03T14:17:41;1.60;;;1.50;;
31126;SDS011;17775;57.948;12.514;2022-07-03T14:20:09;2.88;;;1.67;;
31126;SDS011;17775;57.948;12.514;2022-07-03T14:22:39;2.85;;;1.60;;
31126;SDS011;17775;57.948;12.514;2022-07-03T14:25:06;2.58;;;1.80;;
31126;SDS011;17775;57.948;12.514;2022-07-03T14:27:33;2.35;;;1.38;;
31126;SDS011;17775;57.948;12.514;2022-07-03T14:30:18;2.63;;;1.60;;
31126;SDS011;17775;57.948;12.514;2022-07-03T14:33:03;2.60;;;1.48;;
31126;SDS011;17775;57.948;12.514;2022-07-03T14:35:31;2.35;;;1.50;;
31126;SDS011;17775;57.948;12.514;2022-07-03T14:37:57;1.63;;;1.35;;
31126;SDS011;17775;57.948;12.514;2022-07-03T14:40:24;3.53;;;1.83;;
31126;SDS011;17775;57.948;12.514;2022-07-03T14:42:50;2.58;;;1.80;;
31126;SDS011;17775;57.948;12.514;2022-07-03T14:45:17;4.35;;;2.10;;
31126;SDS011;17775;57.948;12.514;2022-07-03T14:47:44;2.60;;;1.70;;
31126;SDS011;17775;57.948;12.514;2022-07-03T14:50:10;4.13;;;1.83;;
31126;SDS011;17775;57.948;12.514;2022-07-03T14:52:37;2.55;;;2.08;;
31126;SDS011;17775;57.948;12.514;2022-07-03T14:55:03;2.63;;;1.95;;
31126;SDS011;17775;57.948;12.514;2022-07-03T14:57:31;2.72;;;2.03;;
31126;SDS011;17775;57.948;12.514;2022-07-03T15:02:32;4.13;;;2.70;;
31126;SDS011;17775;57.948;12.514;2022-07-03T15:08:04;3.33;;;2.60;;
31126;SDS011;17775;57.948;12.514;2022-07-03T15:10:33;3.40;;;2.17;;
31126;SDS011;17775;57.948;12.514;2022-07-03T15:13:03;3.15;;;2.33;;
31126;SDS011;17775;57.948;12.514;2022-07-03T15:15:30;3.20;;;2.45;;
31126;SDS011;17775;57.948;12.514;2022-07-03T15:17:58;3.30;;;1.77;;
31126;SDS011;17775;57.948;12.514;2022-07-03T15:20:31;3.35;;;2.15;;
31126;SDS011;17775;57.948;12.514;2022-07-03T15:23:01;2.70;;;1.98;;
31126;SDS011;17775;57.948;12.514;2022-07-03T15:25:29;2.75;;;2.42;;
31126;SDS011;17775;57.948;12.514;2022-07-03T15:27:56;2.85;;;1.95;;
31126;SDS011;17775;57.948;12.514;2022-07-03T15:30:23;3.28;;;1.90;;
31126;SDS011;17775;57.948;12.514;2022-07-03T15:32:50;2.63;;;1.50;;
31126;SDS011;17775;57.948;12.514;2022-07-03T15:35:17;2.58;;;1.55;;
31126;SDS011;17775;57.948;12.514;2022-07-03T15:37:56;2.67;;;1.63;;
31126;SDS011;17775;57.948;12.514;2022-07-03T15:40:32;2.00;;;1.60;;
31126;SDS011;17775;57.948;12.514;2022-07-03T15:51:21;2.25;;;1.50;;
31126;SDS011;17775;57.948;12.514;2022-07-03T15:53:59;2.83;;;1.67;;
31126;SDS011;17775;57.948;12.514;2022-07-03T15:56:30;1.73;;;1.42;;
31126;SDS011;17775;57.948;12.514;2022-07-03T15:59:02;1.60;;;1.30;;
31126;SDS011;17775;57.948;12.514;2022-07-03T16:01:29;3.53;;;1.52;;
31126;SDS011;17775;57.948;12.514;2022-07-03T16:04:29;3.55;;;1.50;;